Airfield :
LOGIN :

Register | Disclaimer

   EN    FR    IT 

 










Legend :    VFR   Marginal VFR   IFR   Intensive IFR   Very Intensive IFR
Visi :
Ceiling :
>= 8 km
>= 3000ft
5 to 8 km
1000 to 3000 ft
1500m to 5 km
500 to 1000 ft
800 to 1500m
200 to 500 ft
< 800m
< 200 ft
Symbols :   Thunderstorms  Fog  Heavy snow  Heavy precipitations  Wind > 20 kt
SIGMETs :     Misc.  Thunderstorms  Icing  Turbulence  Mountain Waves  Volcanic Ashes







- Airport Elevation : 2265 ft
- IATA code : CZL


DABC - Mohamed Boudiaf Int. Constantine

CURRENT METAR :
  • 241730Z 15022KT 9999 FEW030TCU SCT200 19/02 Q1008

EXPIRED METARs :
  • 241700Z 15024KT 9999 FEW030TCU SCT200 20/05 Q1008
  • 241630Z 15024KT 9999 FEW030 21/02 Q1008
  • 241600Z 15023KT 9999 FEW030 22/02 Q1008
  • 241530Z 16021KT 9999 FEW030 SCT090 22/03 Q1008
  • 241500Z 16022KT 9999 FEW030 SCT046 22/03 Q1008

TAF TAF DABC
Valid from the 24 at 18:00 until the 25 at 18:00 UTC


241700Z 2418/2518 15020KT 9999 SCT030 SCT100
TEMPO 2418/2424 14025G35KT FEW033TCU
BECMG 2422/2424 32008KT
No reported NOTAMs for that airfield.



MET'MAP, your aeronautical weather chart ! - Copyright ORBIFLY December 2007 - Disclaimer

ORBIFLY MET'MAP TEAM :

Programming & Development : Alexandra Zaïnal
Concept & Development : Baudouin d'Aumeries
Co-Development & Prog : Marc-Olivier Méhu
Technical & hardware support : Manuel Goepfert

Contact : metmap@orbifly.com




SOURCES & CREDITS :

   NOAA